sensor_id;sensor_type;location;lat;lon;timestamp;P1;durP1;ratioP1;P2;durP2;ratioP2
12784;SDS011;6456;42.680;23.260;2022-10-22T00:02:17;18.83;;;15.10;;
12784;SDS011;6456;42.680;23.260;2022-10-22T00:04:44;17.33;;;14.13;;
12784;SDS011;6456;42.680;23.260;2022-10-22T00:07:12;20.10;;;14.67;;
12784;SDS011;6456;42.680;23.260;2022-10-22T00:09:39;17.63;;;14.13;;
12784;SDS011;6456;42.680;23.260;2022-10-22T00:12:06;24.87;;;15.17;;
12784;SDS011;6456;42.680;23.260;2022-10-22T00:14:35;19.90;;;14.40;;
12784;SDS011;6456;42.680;23.260;2022-10-22T00:17:02;17.33;;;14.10;;
12784;SDS011;6456;42.680;23.260;2022-10-22T00:19:29;19.43;;;15.33;;
12784;SDS011;6456;42.680;23.260;2022-10-22T00:21:56;19.57;;;14.73;;
12784;SDS011;6456;42.680;23.260;2022-10-22T00:24:23;19.40;;;15.03;;
12784;SDS011;6456;42.680;23.260;2022-10-22T00:26:50;20.13;;;15.80;;
12784;SDS011;6456;42.680;23.260;2022-10-22T00:29:18;20.13;;;15.10;;
12784;SDS011;6456;42.680;23.260;2022-10-22T00:31:46;23.33;;;15.53;;
12784;SDS011;6456;42.680;23.260;2022-10-22T00:34:15;16.87;;;13.70;;
12784;SDS011;6456;42.680;23.260;2022-10-22T00:36:44;16.60;;;13.77;;
12784;SDS011;6456;42.680;23.260;2022-10-22T00:39:11;17.97;;;13.30;;
12784;SDS011;6456;42.680;23.260;2022-10-22T00:41:40;19.07;;;13.33;;
12784;SDS011;6456;42.680;23.260;2022-10-22T00:44:07;18.57;;;12.97;;
12784;SDS011;6456;42.680;23.260;2022-10-22T00:47:14;16.67;;;13.03;;
12784;SDS011;6456;42.680;23.260;2022-10-22T00:49:41;16.60;;;13.03;;
12784;SDS011;6456;42.680;23.260;2022-10-22T00:52:10;20.07;;;13.43;;
12784;SDS011;6456;42.680;23.260;2022-10-22T00:54:38;17.83;;;13.87;;
12784;SDS011;6456;42.680;23.260;2022-10-22T00:57:06;20.90;;;14.77;;
12784;SDS011;6456;42.680;23.260;2022-10-22T00:59:33;16.37;;;14.27;;
12784;SDS011;6456;42.680;23.260;2022-10-22T01:02:02;16.47;;;13.23;;
12784;SDS011;6456;42.680;23.260;2022-10-22T01:04:30;18.70;;;14.20;;
12784;SDS011;6456;42.680;23.260;2022-10-22T01:06:59;15.70;;;13.10;;
12784;SDS011;6456;42.680;23.260;2022-10-22T01:09:27;16.63;;;13.53;;
12784;SDS011;6456;42.680;23.260;2022-10-22T01:12:00;18.60;;;12.70;;
12784;SDS011;6456;42.680;23.260;2022-10-22T01:14:36;18.93;;;14.17;;
12784;SDS011;6456;42.680;23.260;2022-10-22T01:17:13;17.57;;;12.87;;
12784;SDS011;6456;42.680;23.260;2022-10-22T01:19:52;21.33;;;14.77;;
12784;SDS011;6456;42.680;23.260;2022-10-22T01:22:30;21.07;;;16.10;;
12784;SDS011;6456;42.680;23.260;2022-10-22T01:25:04;18.83;;;14.37;;
12784;SDS011;6456;42.680;23.260;2022-10-22T01:27:45;19.47;;;14.83;;
12784;SDS011;6456;42.680;23.260;2022-10-22T01:30:23;19.13;;;15.53;;
12784;SDS011;6456;42.680;23.260;2022-10-22T01:32:51;21.53;;;15.80;;
12784;SDS011;6456;42.680;23.260;2022-10-22T01:35:22;21.83;;;15.23;;
12784;SDS011;6456;42.680;23.260;2022-10-22T01:37:53;22.77;;;14.43;;
12784;SDS011;6456;42.680;23.260;2022-10-22T01:40:24;17.70;;;13.53;;
12784;SDS011;6456;42.680;23.260;2022-10-22T01:42:53;17.37;;;14.27;;
12784;SDS011;6456;42.680;23.260;2022-10-22T01:45:21;18.17;;;14.63;;
12784;SDS011;6456;42.680;23.260;2022-10-22T01:47:53;17.10;;;13.83;;
12784;SDS011;6456;42.680;23.260;2022-10-22T01:50:31;18.37;;;14.10;;
12784;SDS011;6456;42.680;23.260;2022-10-22T01:53:15;18.10;;;13.80;;
12784;SDS011;6456;42.680;23.260;2022-10-22T01:55:52;18.40;;;14.63;;
12784;SDS011;6456;42.680;23.260;2022-10-22T01:58:33;17.67;;;14.53;;
12784;SDS011;6456;42.680;23.260;2022-10-22T02:01:07;20.63;;;15.60;;
12784;SDS011;6456;42.680;23.260;2022-10-22T02:03:44;20.93;;;15.20;;
12784;SDS011;6456;42.680;23.260;2022-10-22T02:06:17;21.73;;;15.70;;
12784;SDS011;6456;42.680;23.260;2022-10-22T02:08:47;18.57;;;14.70;;
12784;SDS011;6456;42.680;23.260;2022-10-22T02:11:16;20.40;;;14.40;;
12784;SDS011;6456;42.680;23.260;2022-10-22T02:13:43;18.87;;;13.70;;
12784;SDS011;6456;42.680;23.260;2022-10-22T02:16:16;18.63;;;14.60;;
12784;SDS011;6456;42.680;23.260;2022-10-22T02:18:46;17.60;;;14.67;;
12784;SDS011;6456;42.680;23.260;2022-10-22T02:21:18;17.43;;;13.30;;
12784;SDS011;6456;42.680;23.260;2022-10-22T02:23:45;17.90;;;13.93;;
12784;SDS011;6456;42.680;23.260;2022-10-22T02:26:14;17.50;;;13.57;;
12784;SDS011;6456;42.680;23.260;2022-10-22T02:28:47;18.87;;;13.80;;
12784;SDS011;6456;42.680;23.260;2022-10-22T02:31:23;18.60;;;14.10;;
12784;SDS011;6456;42.680;23.260;2022-10-22T02:33:53;16.00;;;13.10;;
12784;SDS011;6456;42.680;23.260;2022-10-22T02:36:23;21.03;;;15.60;;
12784;SDS011;6456;42.680;23.260;2022-10-22T02:38:51;20.07;;;15.50;;
12784;SDS011;6456;42.680;23.260;2022-10-22T02:41:19;23.63;;;16.20;;
12784;SDS011;6456;42.680;23.260;2022-10-22T02:43:48;18.37;;;14.37;;
12784;SDS011;6456;42.680;23.260;2022-10-22T02:46:16;22.80;;;15.80;;
12784;SDS011;6456;42.680;23.260;2022-10-22T02:48:45;22.30;;;16.87;;
12784;SDS011;6456;42.680;23.260;2022-10-22T02:51:12;22.67;;;16.60;;
12784;SDS011;6456;42.680;23.260;2022-10-22T02:53:39;21.40;;;16.57;;
12784;SDS011;6456;42.680;23.260;2022-10-22T02:56:06;20.93;;;15.20;;
12784;SDS011;6456;42.680;23.260;2022-10-22T02:58:33;18.83;;;15.20;;
12784;SDS011;6456;42.680;23.260;2022-10-22T03:01:00;19.70;;;15.80;;
12784;SDS011;6456;42.680;23.260;2022-10-22T03:03:27;18.63;;;14.53;;
12784;SDS011;6456;42.680;23.260;2022-10-22T03:05:55;18.90;;;15.27;;
12784;SDS011;6456;42.680;23.260;2022-10-22T03:08:22;19.17;;;13.97;;
12784;SDS011;6456;42.680;23.260;2022-10-22T03:10:49;18.97;;;15.20;;
12784;SDS011;6456;42.680;23.260;2022-10-22T03:13:16;19.70;;;15.00;;
12784;SDS011;6456;42.680;23.260;2022-10-22T03:15:43;20.13;;;14.63;;
12784;SDS011;6456;42.680;23.260;2022-10-22T03:18:10;17.63;;;14.20;;
12784;SDS011;6456;42.680;23.260;2022-10-22T03:20:37;18.27;;;14.60;;
12784;SDS011;6456;42.680;23.260;2022-10-22T03:23:05;18.17;;;14.40;;
12784;SDS011;6456;42.680;23.260;2022-10-22T03:25:32;17.97;;;13.63;;
12784;SDS011;6456;42.680;23.260;2022-10-22T03:28:01;18.87;;;14.83;;
12784;SDS011;6456;42.680;23.260;2022-10-22T03:30:30;20.60;;;14.40;;
12784;SDS011;6456;42.680;23.260;2022-10-22T03:32:57;17.13;;;13.77;;
12784;SDS011;6456;42.680;23.260;2022-10-22T03:35:24;17.23;;;14.30;;
12784;SDS011;6456;42.680;23.260;2022-10-22T03:37:52;18.00;;;13.80;;
12784;SDS011;6456;42.680;23.260;2022-10-22T03:40:21;17.37;;;14.07;;
12784;SDS011;6456;42.680;23.260;2022-10-22T03:42:48;22.43;;;14.97;;
12784;SDS011;6456;42.680;23.260;2022-10-22T03:45:15;16.73;;;14.27;;
12784;SDS011;6456;42.680;23.260;2022-10-22T03:47:42;18.33;;;14.43;;
12784;SDS011;6456;42.680;23.260;2022-10-22T03:50:09;17.83;;;13.40;;
12784;SDS011;6456;42.680;23.260;2022-10-22T03:52:36;19.40;;;13.53;;
12784;SDS011;6456;42.680;23.260;2022-10-22T03:55:07;19.00;;;14.13;;
12784;SDS011;6456;42.680;23.260;2022-10-22T03:57:36;18.00;;;14.10;;
12784;SDS011;6456;42.680;23.260;2022-10-22T04:00:03;19.33;;;14.27;;
12784;SDS011;6456;42.680;23.260;2022-10-22T04:02:31;18.47;;;14.23;;
12784;SDS011;6456;42.680;23.260;2022-10-22T04:04:58;23.17;;;14.10;;
12784;SDS011;6456;42.680;23.260;2022-10-22T04:07:25;15.93;;;12.83;;
12784;SDS011;6456;42.680;23.260;2022-10-22T04:09:52;18.00;;;13.87;;
12784;SDS011;6456;42.680;23.260;2022-10-22T04:12:19;18.77;;;13.97;;
12784;SDS011;6456;42.680;23.260;2022-10-22T04:14:47;17.83;;;13.80;;
12784;SDS011;6456;42.680;23.260;2022-10-22T04:17:14;18.70;;;13.80;;
12784;SDS011;6456;42.680;23.260;2022-10-22T04:19:41;16.20;;;13.90;;
12784;SDS011;6456;42.680;23.260;2022-10-22T04:22:08;20.67;;;15.03;;
12784;SDS011;6456;42.680;23.260;2022-10-22T04:24:35;17.23;;;14.83;;
12784;SDS011;6456;42.680;23.260;2022-10-22T04:27:03;25.77;;;15.53;;
12784;SDS011;6456;42.680;23.260;2022-10-22T04:29:29;18.73;;;14.87;;
12784;SDS011;6456;42.680;23.260;2022-10-22T04:31:58;17.30;;;15.03;;
12784;SDS011;6456;42.680;23.260;2022-10-22T04:34:25;19.17;;;14.70;;
12784;SDS011;6456;42.680;23.260;2022-10-22T04:36:53;20.03;;;15.27;;
12784;SDS011;6456;42.680;23.260;2022-10-22T04:39:20;21.60;;;16.80;;
12784;SDS011;6456;42.680;23.260;2022-10-22T04:41:47;21.63;;;16.23;;
12784;SDS011;6456;42.680;23.260;2022-10-22T04:44:14;26.70;;;16.27;;
12784;SDS011;6456;42.680;23.260;2022-10-22T04:46:41;22.80;;;16.30;;
12784;SDS011;6456;42.680;23.260;2022-10-22T04:49:10;20.60;;;16.27;;
12784;SDS011;6456;42.680;23.260;2022-10-22T04:51:37;22.07;;;17.23;;
12784;SDS011;6456;42.680;23.260;2022-10-22T04:54:04;21.03;;;16.60;;
12784;SDS011;6456;42.680;23.260;2022-10-22T04:56:31;23.50;;;17.20;;
12784;SDS011;6456;42.680;23.260;2022-10-22T04:58:59;21.53;;;17.17;;
12784;SDS011;6456;42.680;23.260;2022-10-22T05:01:27;20.97;;;16.70;;
12784;SDS011;6456;42.680;23.260;2022-10-22T05:03:56;23.40;;;16.80;;
12784;SDS011;6456;42.680;23.260;2022-10-22T05:06:26;22.10;;;16.60;;
12784;SDS011;6456;42.680;23.260;2022-10-22T05:08:55;25.60;;;18.10;;
12784;SDS011;6456;42.680;23.260;2022-10-22T05:11:24;20.70;;;17.07;;
12784;SDS011;6456;42.680;23.260;2022-10-22T05:13:52;25.40;;;17.63;;
12784;SDS011;6456;42.680;23.260;2022-10-22T05:16:20;25.17;;;18.10;;
12784;SDS011;6456;42.680;23.260;2022-10-22T05:18:47;27.70;;;19.00;;
12784;SDS011;6456;42.680;23.260;2022-10-22T05:21:14;26.70;;;19.50;;
12784;SDS011;6456;42.680;23.260;2022-10-22T05:23:44;28.40;;;19.37;;
12784;SDS011;6456;42.680;23.260;2022-10-22T05:26:13;27.97;;;18.80;;
12784;SDS011;6456;42.680;23.260;2022-10-22T05:28:41;25.47;;;18.50;;
12784;SDS011;6456;42.680;23.260;2022-10-22T05:31:09;25.70;;;19.10;;
12784;SDS011;6456;42.680;23.260;2022-10-22T05:33:38;26.50;;;18.27;;
12784;SDS011;6456;42.680;23.260;2022-10-22T05:36:06;28.23;;;18.40;;
12784;SDS011;6456;42.680;23.260;2022-10-22T05:38:36;25.77;;;18.40;;
12784;SDS011;6456;42.680;23.260;2022-10-22T05:41:05;29.43;;;18.97;;
12784;SDS011;6456;42.680;23.260;2022-10-22T05:43:33;30.83;;;19.77;;
12784;SDS011;6456;42.680;23.260;2022-10-22T05:46:00;27.43;;;19.23;;
12784;SDS011;6456;42.680;23.260;2022-10-22T05:48:28;25.20;;;19.37;;
12784;SDS011;6456;42.680;23.260;2022-10-22T05:50:55;29.87;;;20.47;;
12784;SDS011;6456;42.680;23.260;2022-10-22T05:53:22;31.07;;;20.60;;
12784;SDS011;6456;42.680;23.260;2022-10-22T05:55:49;25.27;;;18.83;;
12784;SDS011;6456;42.680;23.260;2022-10-22T05:58:17;30.90;;;19.60;;
12784;SDS011;6456;42.680;23.260;2022-10-22T06:00:44;28.37;;;18.87;;
12784;SDS011;6456;42.680;23.260;2022-10-22T06:03:11;26.37;;;19.03;;
12784;SDS011;6456;42.680;23.260;2022-10-22T06:05:39;28.23;;;20.03;;
12784;SDS011;6456;42.680;23.260;2022-10-22T06:08:13;27.37;;;19.30;;
12784;SDS011;6456;42.680;23.260;2022-10-22T06:10:40;31.60;;;21.57;;
12784;SDS011;6456;42.680;23.260;2022-10-22T06:13:08;31.20;;;21.37;;
12784;SDS011;6456;42.680;23.260;2022-10-22T06:15:37;33.57;;;21.00;;
12784;SDS011;6456;42.680;23.260;2022-10-22T06:18:04;30.77;;;21.60;;
12784;SDS011;6456;42.680;23.260;2022-10-22T06:20:32;32.57;;;21.67;;
12784;SDS011;6456;42.680;23.260;2022-10-22T06:22:59;30.27;;;21.03;;
12784;SDS011;6456;42.680;23.260;2022-10-22T06:25:26;26.87;;;20.97;;
12784;SDS011;6456;42.680;23.260;2022-10-22T06:27:53;30.87;;;20.60;;
12784;SDS011;6456;42.680;23.260;2022-10-22T06:30:20;27.33;;;20.67;;
12784;SDS011;6456;42.680;23.260;2022-10-22T06:32:48;26.30;;;20.67;;
12784;SDS011;6456;42.680;23.260;2022-10-22T06:35:15;26.53;;;20.57;;
12784;SDS011;6456;42.680;23.260;2022-10-22T06:37:42;26.37;;;21.87;;
12784;SDS011;6456;42.680;23.260;2022-10-22T06:40:11;31.50;;;21.67;;
12784;SDS011;6456;42.680;23.260;2022-10-22T06:42:38;34.70;;;22.70;;
12784;SDS011;6456;42.680;23.260;2022-10-22T06:45:06;34.20;;;22.40;;
12784;SDS011;6456;42.680;23.260;2022-10-22T06:47:34;28.10;;;21.13;;
12784;SDS011;6456;42.680;23.260;2022-10-22T06:50:02;28.10;;;21.37;;
12784;SDS011;6456;42.680;23.260;2022-10-22T06:52:29;34.07;;;21.47;;
12784;SDS011;6456;42.680;23.260;2022-10-22T06:54:56;30.40;;;21.80;;
12784;SDS011;6456;42.680;23.260;2022-10-22T06:57:23;31.33;;;22.50;;
12784;SDS011;6456;42.680;23.260;2022-10-22T06:59:49;29.90;;;24.07;;
12784;SDS011;6456;42.680;23.260;2022-10-22T07:02:17;34.57;;;26.60;;
12784;SDS011;6456;42.680;23.260;2022-10-22T07:04:44;33.47;;;24.77;;
12784;SDS011;6456;42.680;23.260;2022-10-22T07:07:12;36.57;;;28.10;;
12784;SDS011;6456;42.680;23.260;2022-10-22T07:09:40;33.00;;;26.17;;
12784;SDS011;6456;42.680;23.260;2022-10-22T07:12:09;30.93;;;26.50;;
12784;SDS011;6456;42.680;23.260;2022-10-22T07:14:36;35.90;;;26.93;;
12784;SDS011;6456;42.680;23.260;2022-10-22T07:17:03;32.10;;;24.87;;
12784;SDS011;6456;42.680;23.260;2022-10-22T07:19:30;32.43;;;23.43;;
12784;SDS011;6456;42.680;23.260;2022-10-22T07:21:57;28.53;;;22.80;;
12784;SDS011;6456;42.680;23.260;2022-10-22T07:24:25;27.97;;;22.00;;
12784;SDS011;6456;42.680;23.260;2022-10-22T07:26:52;24.17;;;20.17;;
12784;SDS011;6456;42.680;23.260;2022-10-22T07:29:19;28.53;;;23.00;;
12784;SDS011;6456;42.680;23.260;2022-10-22T07:31:46;31.40;;;23.13;;
12784;SDS011;6456;42.680;23.260;2022-10-22T07:34:13;30.23;;;24.03;;
12784;SDS011;6456;42.680;23.260;2022-10-22T07:36:40;31.00;;;22.83;;
12784;SDS011;6456;42.680;23.260;2022-10-22T07:39:07;29.03;;;22.77;;
12784;SDS011;6456;42.680;23.260;2022-10-22T07:41:35;27.63;;;23.10;;
12784;SDS011;6456;42.680;23.260;2022-10-22T07:44:02;39.03;;;24.17;;
12784;SDS011;6456;42.680;23.260;2022-10-22T07:46:29;36.23;;;26.90;;
12784;SDS011;6456;42.680;23.260;2022-10-22T07:48:56;40.77;;;28.20;;
12784;SDS011;6456;42.680;23.260;2022-10-22T07:51:23;33.50;;;26.40;;
12784;SDS011;6456;42.680;23.260;2022-10-22T07:53:50;34.63;;;26.33;;
12784;SDS011;6456;42.680;23.260;2022-10-22T07:56:17;32.80;;;23.50;;
12784;SDS011;6456;42.680;23.260;2022-10-22T07:58:45;31.37;;;23.60;;
12784;SDS011;6456;42.680;23.260;2022-10-22T08:01:12;23.93;;;19.20;;
12784;SDS011;6456;42.680;23.260;2022-10-22T08:03:39;24.57;;;20.47;;
12784;SDS011;6456;42.680;23.260;2022-10-22T08:06:07;39.63;;;21.33;;
12784;SDS011;6456;42.680;23.260;2022-10-22T08:08:35;50.37;;;21.67;;
12784;SDS011;6456;42.680;23.260;2022-10-22T08:11:02;42.30;;;20.90;;
12784;SDS011;6456;42.680;23.260;2022-10-22T08:13:29;78.00;;;25.40;;
12784;SDS011;6456;42.680;23.260;2022-10-22T08:15:57;44.83;;;22.30;;
12784;SDS011;6456;42.680;23.260;2022-10-22T08:18:25;24.67;;;20.93;;
12784;SDS011;6456;42.680;23.260;2022-10-22T08:20:52;25.07;;;20.03;;
12784;SDS011;6456;42.680;23.260;2022-10-22T08:23:19;25.87;;;20.43;;
12784;SDS011;6456;42.680;23.260;2022-10-22T08:25:46;25.83;;;19.77;;
12784;SDS011;6456;42.680;23.260;2022-10-22T08:28:13;21.77;;;18.13;;
12784;SDS011;6456;42.680;23.260;2022-10-22T08:30:40;21.70;;;18.07;;
12784;SDS011;6456;42.680;23.260;2022-10-22T08:33:10;23.17;;;18.03;;
12784;SDS011;6456;42.680;23.260;2022-10-22T08:35:37;21.83;;;17.13;;
12784;SDS011;6456;42.680;23.260;2022-10-22T08:38:04;22.40;;;18.10;;
12784;SDS011;6456;42.680;23.260;2022-10-22T08:40:32;22.57;;;17.30;;
12784;SDS011;6456;42.680;23.260;2022-10-22T08:43:10;25.50;;;18.43;;
12784;SDS011;6456;42.680;23.260;2022-10-22T08:45:46;30.10;;;19.27;;
12784;SDS011;6456;42.680;23.260;2022-10-22T08:48:26;23.13;;;18.47;;
12784;SDS011;6456;42.680;23.260;2022-10-22T08:51:03;23.83;;;19.90;;
12784;SDS011;6456;42.680;23.260;2022-10-22T08:53:31;29.33;;;20.10;;
12784;SDS011;6456;42.680;23.260;2022-10-22T08:56:04;33.43;;;20.30;;
12784;SDS011;6456;42.680;23.260;2022-10-22T08:58:33;26.27;;;18.53;;
12784;SDS011;6456;42.680;23.260;2022-10-22T09:01:06;28.00;;;20.10;;
12784;SDS011;6456;42.680;23.260;2022-10-22T09:03:43;23.57;;;19.63;;
12784;SDS011;6456;42.680;23.260;2022-10-22T09:06:16;28.87;;;21.50;;
12784;SDS011;6456;42.680;23.260;2022-10-22T09:08:46;31.33;;;21.37;;
12784;SDS011;6456;42.680;23.260;2022-10-22T09:11:19;27.07;;;20.93;;
12784;SDS011;6456;42.680;23.260;2022-10-22T09:13:50;32.23;;;22.00;;
12784;SDS011;6456;42.680;23.260;2022-10-22T09:16:20;23.87;;;20.00;;
12784;SDS011;6456;42.680;23.260;2022-10-22T09:18:56;33.17;;;20.70;;
12784;SDS011;6456;42.680;23.260;2022-10-22T09:21:33;26.73;;;20.10;;
12784;SDS011;6456;42.680;23.260;2022-10-22T09:24:10;26.20;;;20.53;;
12784;SDS011;6456;42.680;23.260;2022-10-22T09:26:39;24.23;;;19.87;;
12784;SDS011;6456;42.680;23.260;2022-10-22T09:29:08;27.67;;;20.13;;
12784;SDS011;6456;42.680;23.260;2022-10-22T09:31:42;27.87;;;19.90;;
12784;SDS011;6456;42.680;23.260;2022-10-22T09:34:10;29.67;;;22.03;;
12784;SDS011;6456;42.680;23.260;2022-10-22T09:36:39;25.73;;;20.93;;
12784;SDS011;6456;42.680;23.260;2022-10-22T09:39:19;27.57;;;21.43;;
12784;SDS011;6456;42.680;23.260;2022-10-22T09:41:48;29.50;;;22.00;;
12784;SDS011;6456;42.680;23.260;2022-10-22T09:44:16;27.50;;;21.10;;
12784;SDS011;6456;42.680;23.260;2022-10-22T09:46:43;27.80;;;21.30;;
12784;SDS011;6456;42.680;23.260;2022-10-22T09:49:12;28.40;;;21.23;;
12784;SDS011;6456;42.680;23.260;2022-10-22T09:51:45;28.47;;;22.80;;
12784;SDS011;6456;42.680;23.260;2022-10-22T09:54:16;29.67;;;21.70;;
12784;SDS011;6456;42.680;23.260;2022-10-22T09:56:52;27.47;;;21.40;;
12784;SDS011;6456;42.680;23.260;2022-10-22T09:59:25;28.43;;;21.07;;
12784;SDS011;6456;42.680;23.260;2022-10-22T10:01:55;30.60;;;21.67;;
12784;SDS011;6456;42.680;23.260;2022-10-22T10:04:25;30.17;;;20.70;;
12784;SDS011;6456;42.680;23.260;2022-10-22T10:06:53;26.80;;;20.63;;
12784;SDS011;6456;42.680;23.260;2022-10-22T10:09:22;27.53;;;21.60;;
12784;SDS011;6456;42.680;23.260;2022-10-22T10:11:53;25.40;;;20.97;;
12784;SDS011;6456;42.680;23.260;2022-10-22T10:14:27;24.17;;;20.47;;
12784;SDS011;6456;42.680;23.260;2022-10-22T10:17:04;27.37;;;20.17;;
12784;SDS011;6456;42.680;23.260;2022-10-22T10:19:44;25.80;;;20.67;;
12784;SDS011;6456;42.680;23.260;2022-10-22T10:22:29;26.57;;;20.87;;
12784;SDS011;6456;42.680;23.260;2022-10-22T10:25:11;24.23;;;20.90;;
12784;SDS011;6456;42.680;23.260;2022-10-22T10:27:51;26.27;;;20.07;;
12784;SDS011;6456;42.680;23.260;2022-10-22T10:30:26;27.43;;;21.57;;
12784;SDS011;6456;42.680;23.260;2022-10-22T10:33:04;29.13;;;21.03;;
12784;SDS011;6456;42.680;23.260;2022-10-22T10:35:44;28.60;;;21.77;;
12784;SDS011;6456;42.680;23.260;2022-10-22T10:41:09;30.73;;;21.50;;
12784;SDS011;6456;42.680;23.260;2022-10-22T10:44:04;26.63;;;20.33;;
12784;SDS011;6456;42.680;23.260;2022-10-22T10:46:48;28.03;;;19.50;;
12784;SDS011;6456;42.680;23.260;2022-10-22T10:49:22;25.47;;;20.77;;
12784;SDS011;6456;42.680;23.260;2022-10-22T10:51:55;25.40;;;20.13;;
12784;SDS011;6456;42.680;23.260;2022-10-22T10:54:33;27.37;;;20.47;;
12784;SDS011;6456;42.680;23.260;2022-10-22T10:57:08;25.77;;;20.97;;
12784;SDS011;6456;42.680;23.260;2022-10-22T10:59:48;24.93;;;20.43;;
12784;SDS011;6456;42.680;23.260;2022-10-22T11:02:39;27.47;;;19.60;;
12784;SDS011;6456;42.680;23.260;2022-10-22T11:05:22;26.20;;;20.17;;
12784;SDS011;6456;42.680;23.260;2022-10-22T11:07:58;26.10;;;18.73;;
12784;SDS011;6456;42.680;23.260;2022-10-22T11:10:29;34.23;;;18.90;;
12784;SDS011;6456;42.680;23.260;2022-10-22T11:13:02;21.00;;;18.27;;
12784;SDS011;6456;42.680;23.260;2022-10-22T11:15:36;22.23;;;17.63;;
12784;SDS011;6456;42.680;23.260;2022-10-22T11:18:09;22.27;;;17.03;;
12784;SDS011;6456;42.680;23.260;2022-10-22T11:20:43;25.47;;;17.30;;
12784;SDS011;6456;42.680;23.260;2022-10-22T11:23:19;21.80;;;17.67;;
12784;SDS011;6456;42.680;23.260;2022-10-22T11:25:53;23.73;;;16.57;;
12784;SDS011;6456;42.680;23.260;2022-10-22T11:28:20;32.03;;;17.23;;
12784;SDS011;6456;42.680;23.260;2022-10-22T11:30:53;22.93;;;16.63;;
12784;SDS011;6456;42.680;23.260;2022-10-22T11:33:26;20.47;;;15.90;;
12784;SDS011;6456;42.680;23.260;2022-10-22T11:36:03;21.73;;;16.13;;
12784;SDS011;6456;42.680;23.260;2022-10-22T11:38:33;21.33;;;16.43;;
12784;SDS011;6456;42.680;23.260;2022-10-22T11:41:01;19.23;;;16.50;;
12784;SDS011;6456;42.680;23.260;2022-10-22T11:43:33;21.40;;;16.37;;
12784;SDS011;6456;42.680;23.260;2022-10-22T11:46:02;20.13;;;15.63;;
12784;SDS011;6456;42.680;23.260;2022-10-22T11:48:59;27.83;;;15.20;;
12784;SDS011;6456;42.680;23.260;2022-10-22T11:51:28;20.23;;;14.53;;
12784;SDS011;6456;42.680;23.260;2022-10-22T11:54:00;20.13;;;14.97;;
12784;SDS011;6456;42.680;23.260;2022-10-22T11:56:35;20.17;;;14.93;;
12784;SDS011;6456;42.680;23.260;2022-10-22T11:59:04;20.57;;;14.47;;
12784;SDS011;6456;42.680;23.260;2022-10-22T12:01:55;21.57;;;15.07;;
12784;SDS011;6456;42.680;23.260;2022-10-22T12:04:22;17.10;;;14.10;;
12784;SDS011;6456;42.680;23.260;2022-10-22T12:07:24;19.17;;;14.23;;
12784;SDS011;6456;42.680;23.260;2022-10-22T12:09:58;16.97;;;13.80;;
12784;SDS011;6456;42.680;23.260;2022-10-22T12:12:25;15.50;;;12.70;;
12784;SDS011;6456;42.680;23.260;2022-10-22T12:14:54;15.27;;;13.53;;
12784;SDS011;6456;42.680;23.260;2022-10-22T12:17:24;18.67;;;13.00;;
12784;SDS011;6456;42.680;23.260;2022-10-22T12:19:56;20.20;;;13.03;;
12784;SDS011;6456;42.680;23.260;2022-10-22T12:22:27;19.00;;;13.77;;
12784;SDS011;6456;42.680;23.260;2022-10-22T12:24:58;16.30;;;12.67;;
12784;SDS011;6456;42.680;23.260;2022-10-22T12:27:27;17.90;;;13.20;;
12784;SDS011;6456;42.680;23.260;2022-10-22T12:29:59;20.17;;;12.80;;
12784;SDS011;6456;42.680;23.260;2022-10-22T12:32:32;19.40;;;12.07;;
12784;SDS011;6456;42.680;23.260;2022-10-22T12:35:03;16.00;;;13.00;;
12784;SDS011;6456;42.680;23.260;2022-10-22T12:37:33;21.63;;;12.67;;
12784;SDS011;6456;42.680;23.260;2022-10-22T12:40:00;23.37;;;12.30;;
12784;SDS011;6456;42.680;23.260;2022-10-22T12:42:28;21.77;;;13.77;;
12784;SDS011;6456;42.680;23.260;2022-10-22T12:44:55;18.93;;;12.90;;
12784;SDS011;6456;42.680;23.260;2022-10-22T12:47:22;15.90;;;11.60;;
12784;SDS011;6456;42.680;23.260;2022-10-22T12:49:50;15.33;;;11.33;;
12784;SDS011;6456;42.680;23.260;2022-10-22T12:52:19;18.43;;;11.20;;
12784;SDS011;6456;42.680;23.260;2022-10-22T12:54:50;15.20;;;11.70;;
12784;SDS011;6456;42.680;23.260;2022-10-22T12:57:19;20.23;;;12.80;;
12784;SDS011;6456;42.680;23.260;2022-10-22T12:59:47;14.97;;;11.43;;
12784;SDS011;6456;42.680;23.260;2022-10-22T13:02:18;26.20;;;12.10;;
12784;SDS011;6456;42.680;23.260;2022-10-22T13:05:15;17.77;;;11.23;;
12784;SDS011;6456;42.680;23.260;2022-10-22T13:07:47;15.33;;;10.77;;
12784;SDS011;6456;42.680;23.260;2022-10-22T13:10:18;12.57;;;10.53;;
12784;SDS011;6456;42.680;23.260;2022-10-22T13:12:48;14.43;;;10.17;;
12784;SDS011;6456;42.680;23.260;2022-10-22T13:15:17;14.67;;;11.27;;
12784;SDS011;6456;42.680;23.260;2022-10-22T13:17:46;14.37;;;9.93;;
12784;SDS011;6456;42.680;23.260;2022-10-22T13:20:16;13.33;;;10.57;;
12784;SDS011;6456;42.680;23.260;2022-10-22T13:22:52;17.93;;;9.93;;
12784;SDS011;6456;42.680;23.260;2022-10-22T13:25:23;21.33;;;10.87;;
12784;SDS011;6456;42.680;23.260;2022-10-22T13:27:52;11.93;;;9.87;;
12784;SDS011;6456;42.680;23.260;2022-10-22T13:30:21;12.97;;;9.90;;
12784;SDS011;6456;42.680;23.260;2022-10-22T13:32:50;13.87;;;10.10;;
12784;SDS011;6456;42.680;23.260;2022-10-22T13:35:22;17.50;;;9.83;;
12784;SDS011;6456;42.680;23.260;2022-10-22T13:37:50;17.47;;;9.90;;
12784;SDS011;6456;42.680;23.260;2022-10-22T13:40:17;14.20;;;9.60;;
12784;SDS011;6456;42.680;23.260;2022-10-22T13:42:45;19.03;;;10.23;;
12784;SDS011;6456;42.680;23.260;2022-10-22T13:45:12;13.03;;;10.17;;
12784;SDS011;6456;42.680;23.260;2022-10-22T13:47:39;14.93;;;9.77;;
12784;SDS011;6456;42.680;23.260;2022-10-22T13:50:11;12.93;;;9.50;;
12784;SDS011;6456;42.680;23.260;2022-10-22T13:52:42;10.90;;;8.90;;
12784;SDS011;6456;42.680;23.260;2022-10-22T13:55:12;10.23;;;9.10;;
12784;SDS011;6456;42.680;23.260;2022-10-22T13:57:41;17.20;;;9.53;;
12784;SDS011;6456;42.680;23.260;2022-10-22T14:00:10;10.20;;;8.70;;
12784;SDS011;6456;42.680;23.260;2022-10-22T14:02:39;15.80;;;9.90;;
12784;SDS011;6456;42.680;23.260;2022-10-22T14:05:06;11.13;;;9.03;;
12784;SDS011;6456;42.680;23.260;2022-10-22T14:07:35;20.27;;;9.13;;
12784;SDS011;6456;42.680;23.260;2022-10-22T14:10:08;12.40;;;9.90;;
12784;SDS011;6456;42.680;23.260;2022-10-22T14:12:40;15.30;;;9.80;;
12784;SDS011;6456;42.680;23.260;2022-10-22T14:15:08;10.83;;;9.10;;
12784;SDS011;6456;42.680;23.260;2022-10-22T14:17:37;14.90;;;10.50;;
12784;SDS011;6456;42.680;23.260;2022-10-22T14:20:08;15.20;;;10.17;;
12784;SDS011;6456;42.680;23.260;2022-10-22T14:22:40;19.10;;;10.20;;
12784;SDS011;6456;42.680;23.260;2022-10-22T14:25:10;11.60;;;8.77;;
12784;SDS011;6456;42.680;23.260;2022-10-22T14:27:41;10.93;;;9.20;;
12784;SDS011;6456;42.680;23.260;2022-10-22T14:30:08;12.97;;;9.30;;
12784;SDS011;6456;42.680;23.260;2022-10-22T14:32:39;13.53;;;10.20;;
12784;SDS011;6456;42.680;23.260;2022-10-22T14:35:06;15.07;;;10.33;;
12784;SDS011;6456;42.680;23.260;2022-10-22T14:37:35;13.53;;;9.87;;
12784;SDS011;6456;42.680;23.260;2022-10-22T14:40:02;15.33;;;10.17;;
12784;SDS011;6456;42.680;23.260;2022-10-22T14:42:31;19.60;;;9.60;;
12784;SDS011;6456;42.680;23.260;2022-10-22T14:45:03;14.13;;;10.43;;